createdAt,value
2023-04-14T00:00:15.867Z,6.90
2023-04-14T00:02:43.612Z,6.84
2023-04-14T00:05:11.122Z,6.54
2023-04-14T00:07:41.392Z,6.71
2023-04-14T00:10:09.006Z,6.79
2023-04-14T00:12:43.844Z,6.71
2023-04-14T00:15:11.631Z,6.78
2023-04-14T00:17:39.661Z,6.76
2023-04-14T00:20:09.747Z,6.71
2023-04-14T00:22:36.932Z,6.59
2023-04-14T00:25:13.441Z,6.61
2023-04-14T00:27:49.721Z,6.68
2023-04-14T00:30:19.980Z,6.31
2023-04-14T00:32:58.571Z,6.44
2023-04-14T00:35:29.790Z,6.55
2023-04-14T00:38:01.101Z,6.07
2023-04-14T00:40:36.012Z,6.36
2023-04-14T00:43:02.935Z,6.45
2023-04-14T00:45:30.343Z,6.39
2023-04-14T00:48:01.062Z,6.39
2023-04-14T00:50:31.118Z,6.29
2023-04-14T00:53:07.121Z,6.19
2023-04-14T00:55:40.602Z,6.08
2023-04-14T00:58:14.505Z,6.01
2023-04-14T01:00:43.056Z,5.93
2023-04-14T01:03:18.041Z,5.55
2023-04-14T01:05:47.674Z,5.70
2023-04-14T01:08:15.415Z,5.69
2023-04-14T01:10:50.995Z,5.74
2023-04-14T01:13:38.880Z,5.66
2023-04-14T01:16:41.640Z,5.45
2023-04-14T01:19:44.261Z,5.37
2023-04-14T01:22:18.464Z,5.40
2023-04-14T01:25:23.125Z,5.12
2023-04-14T01:28:22.772Z,5.11
2023-04-14T01:31:06.600Z,5.19
2023-04-14T01:36:44.617Z,5.31
2023-04-14T01:39:45.057Z,5.07
2023-04-14T01:42:18.470Z,5.04
2023-04-14T01:44:59.115Z,4.87
2023-04-14T01:47:30.071Z,5.29
2023-04-14T01:50:06.809Z,5.05
2023-04-14T01:52:38.779Z,5.18
2023-04-14T01:55:09.929Z,4.89
2023-04-14T01:57:45.861Z,5.02
2023-04-14T02:03:05.911Z,4.96
2023-04-14T02:06:02.628Z,4.79
2023-04-14T02:08:40.386Z,4.86
2023-04-14T02:11:11.688Z,4.62
2023-04-14T02:13:44.727Z,4.35
2023-04-14T02:16:22.133Z,4.75
2023-04-14T02:18:50.530Z,4.73
2023-04-14T02:21:20.941Z,4.65
2023-04-14T02:29:22.135Z,4.14
2023-04-14T02:32:27.175Z,4.77
2023-04-14T02:35:14.332Z,4.54
2023-04-14T02:37:50.728Z,4.80
2023-04-14T02:43:37.003Z,4.62
2023-04-14T02:51:40.445Z,4.34
2023-04-14T02:54:10.974Z,4.25
2023-04-14T02:56:44.045Z,4.09
2023-04-14T02:59:14.850Z,3.86
2023-04-14T03:01:45.120Z,3.88
2023-04-14T03:04:16.376Z,4.52
2023-04-14T03:06:51.272Z,4.52
2023-04-14T03:09:20.886Z,4.14
2023-04-14T03:11:51.869Z,4.35
2023-04-14T03:17:11.083Z,4.13
2023-04-14T03:19:43.370Z,4.73
2023-04-14T03:22:15.766Z,4.71
2023-04-14T03:24:48.773Z,4.68
2023-04-14T03:27:33.540Z,4.72
2023-04-14T03:30:28.823Z,4.78
2023-04-14T03:32:59.199Z,4.68
2023-04-14T03:35:33.506Z,4.68
2023-04-14T03:38:04.025Z,4.76
2023-04-14T03:40:37.060Z,4.73
2023-04-14T03:43:06.567Z,4.66
2023-04-14T03:45:38.114Z,4.68
2023-04-14T03:48:08.152Z,4.62
2023-04-14T03:56:13.944Z,4.17
2023-04-14T03:58:47.665Z,4.22
2023-04-14T04:01:19.614Z,4.82
2023-04-14T04:03:48.704Z,4.62
2023-04-14T04:06:24.706Z,4.75
2023-04-14T04:08:56.601Z,4.67
2023-04-14T04:11:41.485Z,4.39
2023-04-14T04:17:10.858Z,4.42
2023-04-14T04:19:47.973Z,4.22
2023-04-14T04:22:27.648Z,4.57
2023-04-14T04:24:57.533Z,4.73
2023-04-14T04:27:28.500Z,4.89
2023-04-14T04:30:13.384Z,4.97
2023-04-14T04:32:46.202Z,4.51
2023-04-14T04:35:24.731Z,4.39
2023-04-14T04:40:53.451Z,4.59
2023-04-14T04:46:43.192Z,4.97
2023-04-14T05:03:34.296Z,4.86
2023-04-14T05:06:02.771Z,4.88
2023-04-14T05:08:31.389Z,4.85
2023-04-14T05:13:48.265Z,4.68
2023-04-14T05:16:27.694Z,4.83
2023-04-14T05:18:58.976Z,4.84
2023-04-14T05:30:47.069Z,4.46
2023-04-14T05:38:45.711Z,5.04
2023-04-14T05:52:46.301Z,4.81
2023-04-14T05:55:46.717Z,5.07
2023-04-14T05:58:25.895Z,5.26
2023-04-14T06:01:00.426Z,5.37
2023-04-14T06:03:54.930Z,5.27
2023-04-14T06:09:13.390Z,5.26
2023-04-14T06:14:57.641Z,5.15
2023-04-14T06:17:31.283Z,5.21
2023-04-14T06:20:06.071Z,5.08
2023-04-14T06:25:34.587Z,4.98
2023-04-14T06:28:05.128Z,4.69
2023-04-14T06:30:35.198Z,4.93
2023-04-14T06:38:41.717Z,4.96
2023-04-14T06:44:38.785Z,5.10
2023-04-14T06:47:07.829Z,5.10
2023-04-14T06:49:49.243Z,5.17
2023-04-14T06:55:12.502Z,5.45
2023-04-14T06:57:44.408Z,5.85
2023-04-14T07:05:44.763Z,5.95
2023-04-14T07:08:13.381Z,5.96
2023-04-14T07:10:41.827Z,5.94
2023-04-14T07:13:12.841Z,6.06
2023-04-14T07:18:26.158Z,6.15
2023-04-14T07:20:55.537Z,6.08
2023-04-14T07:28:51.527Z,6.12
2023-04-14T07:31:26.587Z,6.53
2023-04-14T07:36:43.224Z,6.71
2023-04-14T07:44:40.656Z,7.42
2023-04-14T07:49:56.682Z,7.72
2023-04-14T07:52:30.236Z,7.96
2023-04-14T07:57:54.053Z,7.99
2023-04-14T08:03:19.466Z,7.44
2023-04-14T08:08:42.823Z,6.66
2023-04-14T08:11:23.309Z,6.48
2023-04-14T08:19:30.456Z,6.64
2023-04-14T08:22:03.143Z,6.63
2023-04-14T08:24:42.958Z,6.70
2023-04-14T08:32:52.726Z,7.06
2023-04-14T08:35:36.880Z,7.07
2023-04-14T08:38:11.292Z,7.28
2023-04-14T08:40:48.543Z,8.00
2023-04-14T08:43:18.613Z,8.56
2023-04-14T08:45:52.996Z,8.67
2023-04-14T08:48:33.643Z,8.56
2023-04-14T08:56:55.337Z,8.87
2023-04-14T08:59:22.958Z,8.74
2023-04-14T09:01:54.816Z,8.64
2023-04-14T09:04:24.650Z,8.31
2023-04-14T09:07:00.103Z,8.14
2023-04-14T09:09:35.440Z,8.02
2023-04-14T09:15:18.069Z,8.06
2023-04-14T09:21:49.888Z,7.46
2023-04-14T09:23:48.813Z,8.07
2023-04-14T09:26:21.799Z,8.45
2023-04-14T09:31:37.938Z,8.84
2023-04-14T09:34:28.633Z,9.02
2023-04-14T09:37:16.883Z,9.34
2023-04-14T09:39:53.675Z,9.38
2023-04-14T09:42:47.542Z,9.51
2023-04-14T09:45:21.465Z,8.81
2023-04-14T09:54:46.192Z,9.77
2023-04-14T10:11:39.124Z,10.64
2023-04-14T10:16:53.720Z,10.41
2023-04-14T10:19:22.350Z,10.40
2023-04-14T10:22:05.849Z,10.34
2023-04-14T10:24:33.579Z,10.55
2023-04-14T10:38:07.666Z,10.63
2023-04-14T10:41:00.538Z,11.29
2023-04-14T10:46:54.608Z,11.56
2023-04-14T10:49:40.146Z,11.50
2023-04-14T10:55:51.286Z,11.99
2023-04-14T10:58:33.139Z,11.91
2023-04-14T11:01:15.915Z,12.04
2023-04-14T11:03:51.102Z,11.92
2023-04-14T11:06:55.895Z,12.15
2023-04-14T11:09:52.019Z,12.22
2023-04-14T11:12:28.662Z,11.72
2023-04-14T11:15:10.887Z,11.94
2023-04-14T11:17:46.745Z,12.55
2023-04-14T11:20:33.949Z,12.41
2023-04-14T11:23:06.813Z,12.56
2023-04-14T11:25:39.228Z,12.70
2023-04-14T11:28:12.878Z,12.78
2023-04-14T11:30:45.981Z,12.78
2023-04-14T11:38:43.142Z,12.64
2023-04-14T11:41:32.618Z,12.82
2023-04-14T11:44:05.432Z,13.11
2023-04-14T11:46:50.831Z,12.81
2023-04-14T11:49:22.211Z,12.69
2023-04-14T11:51:54.249Z,12.32
2023-04-14T11:54:24.788Z,12.38
2023-04-14T11:56:55.733Z,12.37
2023-04-14T11:59:22.770Z,12.40
2023-04-14T12:01:53.625Z,11.96
2023-04-14T12:04:23.108Z,11.60
2023-04-14T12:07:05.249Z,11.66
2023-04-14T12:09:35.777Z,11.92
2023-04-14T12:12:14.121Z,12.61
2023-04-14T12:14:52.230Z,12.83
2023-04-14T12:17:39.997Z,12.37
2023-04-14T12:26:03.169Z,12.53
2023-04-14T12:28:32.859Z,12.12
2023-04-14T12:31:08.288Z,12.11
2023-04-14T12:33:35.453Z,12.22
2023-04-14T12:41:47.818Z,13.02
2023-04-14T12:44:30.754Z,12.96
2023-04-14T12:47:06.193Z,13.84
2023-04-14T12:58:27.306Z,14.97
2023-04-14T13:00:59.493Z,14.69
2023-04-14T13:03:52.755Z,14.82
2023-04-14T13:06:22.990Z,15.00
2023-04-14T13:09:00.177Z,15.05
2023-04-14T13:14:27.148Z,14.16
2023-04-14T13:17:05.675Z,14.20
2023-04-14T13:19:37.808Z,14.17
2023-04-14T13:22:08.073Z,14.33
2023-04-14T13:24:47.181Z,14.14
2023-04-14T13:27:21.914Z,13.95
2023-04-14T13:30:00.886Z,14.09
2023-04-14T13:32:31.556Z,14.09
2023-04-14T13:35:12.304Z,13.81
2023-04-14T13:37:44.182Z,13.62
2023-04-14T13:40:11.684Z,13.75
2023-04-14T13:45:24.770Z,13.68
2023-04-14T13:50:41.448Z,14.21
2023-04-14T13:53:16.025Z,14.80
2023-04-14T13:55:47.198Z,14.81
2023-04-14T13:58:14.258Z,14.98
2023-04-14T14:00:47.148Z,14.78
2023-04-14T14:03:20.870Z,14.46
2023-04-14T14:11:27.183Z,14.28
2023-04-14T14:13:59.902Z,15.04
2023-04-14T14:16:36.569Z,15.13
2023-04-14T14:19:08.797Z,15.75
2023-04-14T14:21:41.111Z,15.45
2023-04-14T14:24:15.353Z,15.34
2023-04-14T14:26:50.399Z,15.13
2023-04-14T14:29:22.792Z,15.59
2023-04-14T14:34:33.534Z,15.47
2023-04-14T14:37:11.575Z,15.51
2023-04-14T14:39:50.891Z,15.46
2023-04-14T14:42:26.575Z,15.25
2023-04-14T14:44:55.568Z,15.41
2023-04-14T15:11:30.511Z,15.89
2023-04-14T15:14:15.362Z,15.89
2023-04-14T15:16:59.262Z,15.85
2023-04-14T15:22:15.711Z,16.45
2023-04-14T15:39:09.885Z,15.46
2023-04-14T15:44:49.295Z,15.38
2023-04-14T15:47:27.579Z,14.85
2023-04-14T15:50:09.789Z,14.89
2023-04-14T15:55:19.804Z,14.74
2023-04-14T16:00:45.499Z,14.76
2023-04-14T16:03:20.036Z,14.69
2023-04-14T16:05:48.113Z,14.60
2023-04-14T16:11:01.132Z,14.54
2023-04-14T16:13:30.107Z,14.69
2023-04-14T16:16:01.336Z,14.64
2023-04-14T16:18:47.128Z,14.67
2023-04-14T16:24:10.902Z,14.39
2023-04-14T16:29:59.818Z,14.20
2023-04-14T16:35:51.146Z,13.76
2023-04-14T16:41:17.288Z,14.01
2023-04-14T16:49:31.791Z,14.39
2023-04-14T16:52:06.147Z,13.99
2023-04-14T16:54:54.488Z,14.21
2023-04-14T16:57:30.987Z,14.14
2023-04-14T17:00:01.808Z,14.14
2023-04-14T17:07:54.050Z,13.88
2023-04-14T17:13:15.839Z,13.14
2023-04-14T17:16:08.335Z,13.70
2023-04-14T17:19:05.003Z,13.25
2023-04-14T17:21:36.501Z,13.21
2023-04-14T17:29:45.734Z,13.24
2023-04-14T17:32:18.493Z,13.42
2023-04-14T17:34:55.205Z,13.17
2023-04-14T17:37:25.579Z,13.18
2023-04-14T17:39:54.095Z,13.09
2023-04-14T17:42:33.742Z,13.29
2023-04-14T17:55:58.513Z,12.68
2023-04-14T18:03:53.226Z,12.79
2023-04-14T18:06:20.767Z,12.65
2023-04-14T18:08:55.109Z,12.64
2023-04-14T18:14:18.072Z,12.41
2023-04-14T18:16:48.626Z,12.41
2023-04-14T18:19:24.899Z,12.33
2023-04-14T18:21:59.256Z,12.25
2023-04-14T18:29:43.954Z,12.01
2023-04-14T18:34:57.310Z,11.84
2023-04-14T18:37:29.683Z,11.82
2023-04-14T18:40:02.504Z,11.75
2023-04-14T18:42:38.278Z,11.67
2023-04-14T18:45:13.311Z,11.60
2023-04-14T18:47:50.418Z,11.50
2023-04-14T18:50:29.920Z,11.41
2023-04-14T18:53:02.191Z,11.10
2023-04-14T18:55:44.578Z,11.25
2023-04-14T18:58:13.617Z,10.99
2023-04-14T19:00:44.480Z,10.78
2023-04-14T19:03:12.771Z,11.03
2023-04-14T19:08:23.136Z,10.88
2023-04-14T19:10:51.075Z,10.24
2023-04-14T19:13:29.862Z,10.79
2023-04-14T19:16:15.137Z,10.45
2023-04-14T19:18:47.798Z,10.66
2023-04-14T19:21:17.816Z,10.72
2023-04-14T19:23:47.824Z,10.36
2023-04-14T19:31:52.186Z,10.56
2023-04-14T19:34:20.993Z,10.32
2023-04-14T19:36:50.900Z,10.00
2023-04-14T19:39:25.748Z,10.35
2023-04-14T19:44:40.107Z,10.21
2023-04-14T19:50:01.045Z,10.05
2023-04-14T19:52:29.262Z,9.97
2023-04-14T19:54:58.889Z,10.00
2023-04-14T19:57:26.711Z,9.62
2023-04-14T19:59:58.412Z,9.68
2023-04-14T20:02:26.302Z,9.80
2023-04-14T20:05:00.651Z,9.69
2023-04-14T20:07:29.197Z,9.70
2023-04-14T20:10:02.557Z,9.08
2023-04-14T20:12:31.885Z,9.55
2023-04-14T20:20:24.431Z,9.53
2023-04-14T20:22:54.829Z,9.47
2023-04-14T20:25:31.322Z,9.41
2023-04-14T20:31:04.814Z,9.26
2023-04-14T20:33:53.359Z,9.09
2023-04-14T20:36:27.723Z,8.87
2023-04-14T20:39:00.367Z,8.89
2023-04-14T20:41:33.552Z,8.78
2023-04-14T20:46:47.837Z,8.41
2023-04-14T20:52:44.437Z,8.87
2023-04-14T20:55:17.176Z,8.58
2023-04-14T20:58:03.363Z,8.78
2023-04-14T21:00:34.425Z,8.67
2023-04-14T21:03:04.704Z,8.79
2023-04-14T21:05:38.273Z,8.61
2023-04-14T21:08:10.145Z,8.63
2023-04-14T21:11:15.622Z,8.28
2023-04-14T21:15:40.375Z,8.61
2023-04-14T21:16:43.752Z,8.62
2023-04-14T21:19:19.907Z,8.60
2023-04-14T21:27:40.395Z,8.29
2023-04-14T21:30:21.664Z,7.90
2023-04-14T21:33:13.389Z,8.22
2023-04-14T21:35:52.999Z,8.29
2023-04-14T21:38:20.020Z,8.10
2023-04-14T21:40:49.224Z,8.19
2023-04-14T21:43:16.461Z,7.75
2023-04-14T21:45:47.018Z,8.05
2023-04-14T21:48:20.153Z,8.22
2023-04-14T21:50:53.869Z,7.97
2023-04-14T21:53:37.490Z,7.60
2023-04-14T21:56:31.116Z,8.09
2023-04-14T21:58:58.781Z,7.73
2023-04-14T22:01:44.740Z,7.83
2023-04-14T22:06:52.290Z,7.81
2023-04-14T22:09:30.291Z,7.75
2023-04-14T22:12:08.721Z,7.68
2023-04-14T22:14:39.633Z,7.68
2023-04-14T22:17:16.757Z,7.42
2023-04-14T22:22:21.773Z,7.11
2023-04-14T22:24:52.974Z,7.47
2023-04-14T22:27:24.565Z,7.62
2023-04-14T22:30:00.760Z,7.42
2023-04-14T22:32:31.701Z,7.68
2023-04-14T22:35:01.850Z,7.32
2023-04-14T22:37:33.506Z,7.57
2023-04-14T22:40:08.032Z,7.30
2023-04-14T22:42:50.927Z,7.23
2023-04-14T22:45:19.567Z,6.87
2023-04-14T22:47:57.750Z,7.19
2023-04-14T22:50:24.901Z,7.27
2023-04-14T22:52:52.636Z,7.19
2023-04-14T22:55:22.727Z,6.72
2023-04-14T22:57:58.976Z,6.91
2023-04-14T23:00:39.455Z,7.01
2023-04-14T23:03:12.285Z,7.10
2023-04-14T23:05:41.654Z,6.94
2023-04-14T23:08:15.094Z,7.04
2023-04-14T23:10:44.455Z,6.98
2023-04-14T23:13:14.282Z,6.93
2023-04-14T23:15:42.071Z,6.90
2023-04-14T23:18:12.185Z,6.88
2023-04-14T23:20:44.859Z,6.89
2023-04-14T23:23:12.582Z,6.94
2023-04-14T23:25:42.261Z,7.01
2023-04-14T23:28:27.099Z,7.01
2023-04-14T23:30:55.460Z,6.72
2023-04-14T23:33:25.908Z,7.04
2023-04-14T23:35:53.697Z,6.65
2023-04-14T23:38:21.704Z,6.65
2023-04-14T23:43:36.857Z,6.89
2023-04-14T23:46:08.066Z,6.82
2023-04-14T23:48:38.046Z,6.47
2023-04-14T23:51:21.902Z,6.75
2023-04-14T23:53:52.323Z,6.73
2023-04-14T23:56:24.128Z,6.76
